sensor_id;sensor_type;location;lat;lon;timestamp;temperature;humidity
14934;DHT22;7560;51.364;12.384;2023-01-24T00:02:04;3.00;99.90
14934;DHT22;7560;51.364;12.384;2023-01-24T00:07:07;2.80;99.90
14934;DHT22;7560;51.364;12.384;2023-01-24T00:12:08;2.70;99.90
14934;DHT22;7560;51.364;12.384;2023-01-24T00:17:12;2.80;99.90
14934;DHT22;7560;51.364;12.384;2023-01-24T00:22:15;2.80;99.90
14934;DHT22;7560;51.364;12.384;2023-01-24T00:27:17;2.80;99.90
14934;DHT22;7560;51.364;12.384;2023-01-24T00:32:26;2.80;99.90
14934;DHT22;7560;51.364;12.384;2023-01-24T00:37:28;2.70;99.90
14934;DHT22;7560;51.364;12.384;2023-01-24T00:42:30;2.60;99.90
14934;DHT22;7560;51.364;12.384;2023-01-24T00:47:32;2.70;99.90
14934;DHT22;7560;51.364;12.384;2023-01-24T00:52:34;2.80;99.90
14934;DHT22;7560;51.364;12.384;2023-01-24T00:57:39;2.80;99.90
14934;DHT22;7560;51.364;12.384;2023-01-24T01:02:42;2.70;99.90
14934;DHT22;7560;51.364;12.384;2023-01-24T01:07:44;2.90;99.90
14934;DHT22;7560;51.364;12.384;2023-01-24T01:12:46;2.80;99.90
14934;DHT22;7560;51.364;12.384;2023-01-24T01:17:50;2.70;99.90
14934;DHT22;7560;51.364;12.384;2023-01-24T01:22:52;2.70;99.90
14934;DHT22;7560;51.364;12.384;2023-01-24T01:27:54;2.60;99.90
14934;DHT22;7560;51.364;12.384;2023-01-24T01:32:56;2.70;99.90
14934;DHT22;7560;51.364;12.384;2023-01-24T01:37:58;2.70;99.90
14934;DHT22;7560;51.364;12.384;2023-01-24T01:43:00;2.80;99.90
14934;DHT22;7560;51.364;12.384;2023-01-24T01:53:42;2.80;99.90
14934;DHT22;7560;51.364;12.384;2023-01-24T01:58:45;2.80;99.90
14934;DHT22;7560;51.364;12.384;2023-01-24T02:03:51;2.80;99.90
14934;DHT22;7560;51.364;12.384;2023-01-24T02:08:55;2.80;99.90
14934;DHT22;7560;51.364;12.384;2023-01-24T02:13:59;2.80;99.90
14934;DHT22;7560;51.364;12.384;2023-01-24T02:30:41;2.80;99.90
14934;DHT22;7560;51.364;12.384;2023-01-24T02:35:43;2.90;99.90
14934;DHT22;7560;51.364;12.384;2023-01-24T02:40:46;2.80;99.90
14934;DHT22;7560;51.364;12.384;2023-01-24T02:45:48;2.80;99.90
14934;DHT22;7560;51.364;12.384;2023-01-24T02:50:53;2.80;99.90
14934;DHT22;7560;51.364;12.384;2023-01-24T02:56:13;2.70;99.90
14934;DHT22;7560;51.364;12.384;2023-01-24T03:01:34;2.70;99.90
14934;DHT22;7560;51.364;12.384;2023-01-24T03:06:36;2.70;99.90
14934;DHT22;7560;51.364;12.384;2023-01-24T03:11:38;2.70;99.90
14934;DHT22;7560;51.364;12.384;2023-01-24T03:16:39;2.60;99.90
14934;DHT22;7560;51.364;12.384;2023-01-24T03:22:00;2.60;99.90
14934;DHT22;7560;51.364;12.384;2023-01-24T03:27:20;2.60;99.90
14934;DHT22;7560;51.364;12.384;2023-01-24T03:32:42;2.60;99.90
14934;DHT22;7560;51.364;12.384;2023-01-24T03:38:02;2.50;99.90
14934;DHT22;7560;51.364;12.384;2023-01-24T03:43:24;2.50;99.90
14934;DHT22;7560;51.364;12.384;2023-01-24T03:48:26;2.60;99.90
14934;DHT22;7560;51.364;12.384;2023-01-24T03:53:38;2.70;99.90
14934;DHT22;7560;51.364;12.384;2023-01-24T03:58:41;2.60;99.90
14934;DHT22;7560;51.364;12.384;2023-01-24T04:03:44;2.60;99.90
14934;DHT22;7560;51.364;12.384;2023-01-24T04:08:45;2.60;99.90
14934;DHT22;7560;51.364;12.384;2023-01-24T04:13:47;2.60;99.90
14934;DHT22;7560;51.364;12.384;2023-01-24T04:18:49;2.60;99.90
14934;DHT22;7560;51.364;12.384;2023-01-24T04:23:51;2.60;99.90
14934;DHT22;7560;51.364;12.384;2023-01-24T04:28:54;2.60;99.90
14934;DHT22;7560;51.364;12.384;2023-01-24T04:33:56;2.70;99.90
14934;DHT22;7560;51.364;12.384;2023-01-24T04:38:58;2.80;99.90
14934;DHT22;7560;51.364;12.384;2023-01-24T04:43:59;2.90;99.90
14934;DHT22;7560;51.364;12.384;2023-01-24T04:49:01;3.00;99.90
14934;DHT22;7560;51.364;12.384;2023-01-24T04:54:03;2.90;99.90
14934;DHT22;7560;51.364;12.384;2023-01-24T04:59:05;2.90;99.90
14934;DHT22;7560;51.364;12.384;2023-01-24T05:04:07;2.80;99.90
14934;DHT22;7560;51.364;12.384;2023-01-24T05:09:09;2.80;99.90
14934;DHT22;7560;51.364;12.384;2023-01-24T05:14:13;2.80;99.90
14934;DHT22;7560;51.364;12.384;2023-01-24T05:19:16;2.70;99.90
14934;DHT22;7560;51.364;12.384;2023-01-24T05:24:17;2.70;99.90
14934;DHT22;7560;51.364;12.384;2023-01-24T05:29:20;2.60;99.90
14934;DHT22;7560;51.364;12.384;2023-01-24T05:34:22;2.60;99.90
14934;DHT22;7560;51.364;12.384;2023-01-24T05:39:24;2.70;99.90
14934;DHT22;7560;51.364;12.384;2023-01-24T05:44:26;2.60;99.90
14934;DHT22;7560;51.364;12.384;2023-01-24T05:49:28;2.70;99.90
14934;DHT22;7560;51.364;12.384;2023-01-24T05:54:32;2.70;99.90
14934;DHT22;7560;51.364;12.384;2023-01-24T05:59:34;2.60;99.90
14934;DHT22;7560;51.364;12.384;2023-01-24T06:04:37;2.60;99.90
14934;DHT22;7560;51.364;12.384;2023-01-24T06:09:39;2.60;99.90
14934;DHT22;7560;51.364;12.384;2023-01-24T06:14:41;2.60;99.90
14934;DHT22;7560;51.364;12.384;2023-01-24T06:19:44;2.60;99.90
14934;DHT22;7560;51.364;12.384;2023-01-24T06:24:47;2.70;99.90
14934;DHT22;7560;51.364;12.384;2023-01-24T06:29:49;2.80;99.90
14934;DHT22;7560;51.364;12.384;2023-01-24T06:40:11;3.00;99.90
14934;DHT22;7560;51.364;12.384;2023-01-24T06:45:14;3.00;99.90
14934;DHT22;7560;51.364;12.384;2023-01-24T06:50:21;2.90;99.90
14934;DHT22;7560;51.364;12.384;2023-01-24T06:55:23;2.70;99.90
14934;DHT22;7560;51.364;12.384;2023-01-24T07:00:27;2.70;99.90
14934;DHT22;7560;51.364;12.384;2023-01-24T07:05:30;2.60;99.90
14934;DHT22;7560;51.364;12.384;2023-01-24T07:10:32;2.60;99.90
14934;DHT22;7560;51.364;12.384;2023-01-24T07:15:34;2.50;99.90
14934;DHT22;7560;51.364;12.384;2023-01-24T07:20:35;2.60;99.90
14934;DHT22;7560;51.364;12.384;2023-01-24T07:25:38;2.60;99.90
14934;DHT22;7560;51.364;12.384;2023-01-24T07:30:40;2.70;99.90
14934;DHT22;7560;51.364;12.384;2023-01-24T07:35:42;2.70;99.90
14934;DHT22;7560;51.364;12.384;2023-01-24T07:40:45;2.70;99.90
14934;DHT22;7560;51.364;12.384;2023-01-24T07:45:47;2.60;99.90
14934;DHT22;7560;51.364;12.384;2023-01-24T07:50:52;2.60;99.90
14934;DHT22;7560;51.364;12.384;2023-01-24T07:55:54;2.60;99.90
14934;DHT22;7560;51.364;12.384;2023-01-24T08:01:02;2.60;99.90
14934;DHT22;7560;51.364;12.384;2023-01-24T08:06:05;2.50;99.90
14934;DHT22;7560;51.364;12.384;2023-01-24T08:11:07;2.60;99.90
14934;DHT22;7560;51.364;12.384;2023-01-24T08:16:14;2.40;99.90
14934;DHT22;7560;51.364;12.384;2023-01-24T08:21:19;2.40;99.90
14934;DHT22;7560;51.364;12.384;2023-01-24T08:26:21;2.40;99.90
14934;DHT22;7560;51.364;12.384;2023-01-24T08:31:24;2.50;99.90
14934;DHT22;7560;51.364;12.384;2023-01-24T08:36:26;2.60;99.90
14934;DHT22;7560;51.364;12.384;2023-01-24T08:41:29;2.60;99.90
14934;DHT22;7560;51.364;12.384;2023-01-24T08:46:31;2.70;99.90
14934;DHT22;7560;51.364;12.384;2023-01-24T08:51:33;2.50;99.90
14934;DHT22;7560;51.364;12.384;2023-01-24T08:56:35;2.30;99.90
14934;DHT22;7560;51.364;12.384;2023-01-24T09:01:36;2.40;99.90
14934;DHT22;7560;51.364;12.384;2023-01-24T09:06:38;2.50;99.90
14934;DHT22;7560;51.364;12.384;2023-01-24T09:11:40;2.50;99.90
14934;DHT22;7560;51.364;12.384;2023-01-24T09:16:42;2.60;99.90
14934;DHT22;7560;51.364;12.384;2023-01-24T09:21:44;2.50;99.90
14934;DHT22;7560;51.364;12.384;2023-01-24T09:26:49;2.60;99.90
14934;DHT22;7560;51.364;12.384;2023-01-24T09:31:52;2.70;99.90
14934;DHT22;7560;51.364;12.384;2023-01-24T09:36:56;2.60;99.90
14934;DHT22;7560;51.364;12.384;2023-01-24T09:42:06;2.60;99.90
14934;DHT22;7560;51.364;12.384;2023-01-24T09:47:31;2.80;99.90
14934;DHT22;7560;51.364;12.384;2023-01-24T09:52:42;2.80;99.90
14934;DHT22;7560;51.364;12.384;2023-01-24T10:03:19;2.80;99.90
14934;DHT22;7560;51.364;12.384;2023-01-24T10:25:03;3.00;99.90
14934;DHT22;7560;51.364;12.384;2023-01-24T10:30:22;3.00;99.90
14934;DHT22;7560;51.364;12.384;2023-01-24T10:35:38;3.10;99.90
14934;DHT22;7560;51.364;12.384;2023-01-24T10:40:54;3.00;99.90
14934;DHT22;7560;51.364;12.384;2023-01-24T10:51:29;2.90;99.90
14934;DHT22;7560;51.364;12.384;2023-01-24T10:56:38;3.00;99.90
14934;DHT22;7560;51.364;12.384;2023-01-24T11:01:46;3.00;99.90
14934;DHT22;7560;51.364;12.384;2023-01-24T11:06:51;3.20;99.90
14934;DHT22;7560;51.364;12.384;2023-01-24T11:11:54;2.90;99.90
14934;DHT22;7560;51.364;12.384;2023-01-24T11:16:59;3.10;99.90
14934;DHT22;7560;51.364;12.384;2023-01-24T11:22:19;3.20;99.90
14934;DHT22;7560;51.364;12.384;2023-01-24T11:27:21;3.30;99.90
14934;DHT22;7560;51.364;12.384;2023-01-24T11:32:38;3.40;99.90
14934;DHT22;7560;51.364;12.384;2023-01-24T11:43:36;3.40;99.90
14934;DHT22;7560;51.364;12.384;2023-01-24T12:00:18;3.00;99.90
14934;DHT22;7560;51.364;12.384;2023-01-24T12:05:55;3.00;99.90
14934;DHT22;7560;51.364;12.384;2023-01-24T12:11:10;3.00;99.90
14934;DHT22;7560;51.364;12.384;2023-01-24T12:22:01;2.90;99.90
14934;DHT22;7560;51.364;12.384;2023-01-24T12:27:06;3.00;99.90
14934;DHT22;7560;51.364;12.384;2023-01-24T12:32:38;3.00;99.90
14934;DHT22;7560;51.364;12.384;2023-01-24T12:37:57;2.90;99.90
14934;DHT22;7560;51.364;12.384;2023-01-24T12:43:15;3.10;99.90
14934;DHT22;7560;51.364;12.384;2023-01-24T12:48:48;3.00;99.90
14934;DHT22;7560;51.364;12.384;2023-01-24T12:54:20;3.10;99.90
14934;DHT22;7560;51.364;12.384;2023-01-24T12:59:28;3.00;99.90
14934;DHT22;7560;51.364;12.384;2023-01-24T13:10:13;3.20;99.90
14934;DHT22;7560;51.364;12.384;2023-01-24T13:15:23;3.10;99.90
14934;DHT22;7560;51.364;12.384;2023-01-24T13:31:56;3.10;99.90
14934;DHT22;7560;51.364;12.384;2023-01-24T13:37:00;3.40;99.90
14934;DHT22;7560;51.364;12.384;2023-01-24T13:42:20;3.20;99.90
14934;DHT22;7560;51.364;12.384;2023-01-24T13:47:26;3.30;99.90
14934;DHT22;7560;51.364;12.384;2023-01-24T13:52:39;3.30;99.90
14934;DHT22;7560;51.364;12.384;2023-01-24T13:57:43;3.40;99.90
14934;DHT22;7560;51.364;12.384;2023-01-24T14:07:49;3.20;99.90
14934;DHT22;7560;51.364;12.384;2023-01-24T14:12:54;3.10;99.90
14934;DHT22;7560;51.364;12.384;2023-01-24T14:17:57;3.20;99.90
14934;DHT22;7560;51.364;12.384;2023-01-24T14:23:01;3.10;99.90
14934;DHT22;7560;51.364;12.384;2023-01-24T14:28:18;2.80;99.90
14934;DHT22;7560;51.364;12.384;2023-01-24T14:33:31;2.90;99.90
14934;DHT22;7560;51.364;12.384;2023-01-24T14:38:37;3.00;99.90
14934;DHT22;7560;51.364;12.384;2023-01-24T14:43:39;3.00;99.90
14934;DHT22;7560;51.364;12.384;2023-01-24T14:48:41;3.00;99.90
14934;DHT22;7560;51.364;12.384;2023-01-24T14:53:48;2.90;99.90
14934;DHT22;7560;51.364;12.384;2023-01-24T14:58:50;3.00;99.90
14934;DHT22;7560;51.364;12.384;2023-01-24T15:03:56;2.80;99.90
14934;DHT22;7560;51.364;12.384;2023-01-24T15:09:00;2.90;99.90
14934;DHT22;7560;51.364;12.384;2023-01-24T15:14:05;3.10;99.90
14934;DHT22;7560;51.364;12.384;2023-01-24T15:19:24;3.10;99.90
14934;DHT22;7560;51.364;12.384;2023-01-24T15:24:29;3.20;99.90
14934;DHT22;7560;51.364;12.384;2023-01-24T15:29:48;2.90;99.90
14934;DHT22;7560;51.364;12.384;2023-01-24T15:34:50;2.80;99.90
14934;DHT22;7560;51.364;12.384;2023-01-24T15:39:56;2.90;99.90
14934;DHT22;7560;51.364;12.384;2023-01-24T15:45:00;2.90;99.90
14934;DHT22;7560;51.364;12.384;2023-01-24T15:50:02;3.00;99.90
14934;DHT22;7560;51.364;12.384;2023-01-24T15:55:24;3.00;99.90
14934;DHT22;7560;51.364;12.384;2023-01-24T16:00:27;3.00;99.90
14934;DHT22;7560;51.364;12.384;2023-01-24T16:05:29;3.10;99.90
14934;DHT22;7560;51.364;12.384;2023-01-24T16:10:31;3.10;99.90
14934;DHT22;7560;51.364;12.384;2023-01-24T16:15:34;3.10;99.90
14934;DHT22;7560;51.364;12.384;2023-01-24T16:20:36;3.10;99.90
14934;DHT22;7560;51.364;12.384;2023-01-24T16:25:38;3.10;99.90
14934;DHT22;7560;51.364;12.384;2023-01-24T16:30:42;3.10;99.90
14934;DHT22;7560;51.364;12.384;2023-01-24T16:35:45;3.20;99.90
14934;DHT22;7560;51.364;12.384;2023-01-24T16:40:47;3.10;99.90
14934;DHT22;7560;51.364;12.384;2023-01-24T16:45:51;3.00;99.90
14934;DHT22;7560;51.364;12.384;2023-01-24T16:50:52;2.80;99.90
14934;DHT22;7560;51.364;12.384;2023-01-24T16:55:56;2.90;99.90
14934;DHT22;7560;51.364;12.384;2023-01-24T17:00:58;2.90;99.90
14934;DHT22;7560;51.364;12.384;2023-01-24T17:05:59;2.80;99.90
14934;DHT22;7560;51.364;12.384;2023-01-24T17:11:06;2.80;99.90
14934;DHT22;7560;51.364;12.384;2023-01-24T17:16:09;2.80;99.90
14934;DHT22;7560;51.364;12.384;2023-01-24T17:21:14;2.80;99.90
14934;DHT22;7560;51.364;12.384;2023-01-24T17:26:16;2.70;99.90
14934;DHT22;7560;51.364;12.384;2023-01-24T17:31:21;2.70;99.90
14934;DHT22;7560;51.364;12.384;2023-01-24T17:36:24;2.70;99.90
14934;DHT22;7560;51.364;12.384;2023-01-24T17:41:30;2.70;99.90
14934;DHT22;7560;51.364;12.384;2023-01-24T17:46:34;2.70;99.90
14934;DHT22;7560;51.364;12.384;2023-01-24T17:51:37;2.60;99.90
14934;DHT22;7560;51.364;12.384;2023-01-24T17:56:39;2.70;99.90
14934;DHT22;7560;51.364;12.384;2023-01-24T18:01:42;2.60;99.90
14934;DHT22;7560;51.364;12.384;2023-01-24T18:06:45;2.70;99.90
14934;DHT22;7560;51.364;12.384;2023-01-24T18:11:47;2.80;99.90
14934;DHT22;7560;51.364;12.384;2023-01-24T18:16:51;2.80;99.90
14934;DHT22;7560;51.364;12.384;2023-01-24T18:21:53;2.80;99.90
14934;DHT22;7560;51.364;12.384;2023-01-24T18:26:55;2.70;99.90
14934;DHT22;7560;51.364;12.384;2023-01-24T18:31:58;2.80;99.90
14934;DHT22;7560;51.364;12.384;2023-01-24T18:37:00;2.80;99.90
14934;DHT22;7560;51.364;12.384;2023-01-24T18:42:02;2.70;99.90
14934;DHT22;7560;51.364;12.384;2023-01-24T18:47:07;2.90;99.90
14934;DHT22;7560;51.364;12.384;2023-01-24T18:52:09;2.90;99.90
14934;DHT22;7560;51.364;12.384;2023-01-24T18:57:11;2.90;99.90
14934;DHT22;7560;51.364;12.384;2023-01-24T19:02:13;2.80;99.90
14934;DHT22;7560;51.364;12.384;2023-01-24T19:07:14;2.90;99.90
14934;DHT22;7560;51.364;12.384;2023-01-24T19:12:16;3.00;99.90
14934;DHT22;7560;51.364;12.384;2023-01-24T19:17:18;3.00;99.90
14934;DHT22;7560;51.364;12.384;2023-01-24T19:22:20;2.90;99.90
14934;DHT22;7560;51.364;12.384;2023-01-24T19:27:23;2.90;99.90
14934;DHT22;7560;51.364;12.384;2023-01-24T19:32:25;2.90;99.90
14934;DHT22;7560;51.364;12.384;2023-01-24T19:37:27;2.90;99.90
14934;DHT22;7560;51.364;12.384;2023-01-24T19:42:28;3.00;99.90
14934;DHT22;7560;51.364;12.384;2023-01-24T19:47:30;3.00;99.90
14934;DHT22;7560;51.364;12.384;2023-01-24T19:52:32;3.00;99.90
14934;DHT22;7560;51.364;12.384;2023-01-24T19:57:36;3.00;99.90
14934;DHT22;7560;51.364;12.384;2023-01-24T20:02:38;3.00;99.90
14934;DHT22;7560;51.364;12.384;2023-01-24T20:07:40;3.00;99.90
14934;DHT22;7560;51.364;12.384;2023-01-24T20:12:42;2.80;99.90
14934;DHT22;7560;51.364;12.384;2023-01-24T20:17:44;2.60;99.90
14934;DHT22;7560;51.364;12.384;2023-01-24T20:22:46;2.70;99.90
14934;DHT22;7560;51.364;12.384;2023-01-24T20:27:51;2.80;99.90
14934;DHT22;7560;51.364;12.384;2023-01-24T20:32:54;2.80;99.90
14934;DHT22;7560;51.364;12.384;2023-01-24T20:37:56;2.80;99.90
14934;DHT22;7560;51.364;12.384;2023-01-24T20:42:58;2.90;99.90
14934;DHT22;7560;51.364;12.384;2023-01-24T20:48:01;2.80;99.90
14934;DHT22;7560;51.364;12.384;2023-01-24T20:53:04;3.00;99.90
14934;DHT22;7560;51.364;12.384;2023-01-24T20:58:06;2.80;99.90
14934;DHT22;7560;51.364;12.384;2023-01-24T21:03:08;2.80;99.90
14934;DHT22;7560;51.364;12.384;2023-01-24T21:08:10;2.90;99.90
14934;DHT22;7560;51.364;12.384;2023-01-24T21:13:12;2.90;99.90
14934;DHT22;7560;51.364;12.384;2023-01-24T21:18:16;2.80;99.90
14934;DHT22;7560;51.364;12.384;2023-01-24T21:23:19;2.90;99.90
14934;DHT22;7560;51.364;12.384;2023-01-24T21:28:23;3.00;99.90
14934;DHT22;7560;51.364;12.384;2023-01-24T21:33:25;3.10;99.90
14934;DHT22;7560;51.364;12.384;2023-01-24T21:38:28;3.20;99.90
14934;DHT22;7560;51.364;12.384;2023-01-24T21:43:30;3.10;99.90
14934;DHT22;7560;51.364;12.384;2023-01-24T21:48:31;3.10;99.90
14934;DHT22;7560;51.364;12.384;2023-01-24T21:53:52;3.00;99.90
14934;DHT22;7560;51.364;12.384;2023-01-24T21:59:03;3.10;99.90
14934;DHT22;7560;51.364;12.384;2023-01-24T22:04:05;2.90;99.90
14934;DHT22;7560;51.364;12.384;2023-01-24T22:09:07;2.90;99.90
14934;DHT22;7560;51.364;12.384;2023-01-24T22:19:19;3.20;99.90
14934;DHT22;7560;51.364;12.384;2023-01-24T22:29:45;3.00;99.90
14934;DHT22;7560;51.364;12.384;2023-01-24T22:34:48;3.00;99.90
14934;DHT22;7560;51.364;12.384;2023-01-24T22:39:51;2.90;99.90
14934;DHT22;7560;51.364;12.384;2023-01-24T22:44:53;3.00;99.90
14934;DHT22;7560;51.364;12.384;2023-01-24T22:49:55;2.90;99.90
14934;DHT22;7560;51.364;12.384;2023-01-24T22:54:59;3.00;99.90
14934;DHT22;7560;51.364;12.384;2023-01-24T23:00:01;3.00;99.90
14934;DHT22;7560;51.364;12.384;2023-01-24T23:05:07;3.00;99.90
14934;DHT22;7560;51.364;12.384;2023-01-24T23:10:10;2.90;99.90
14934;DHT22;7560;51.364;12.384;2023-01-24T23:15:11;2.80;99.90
14934;DHT22;7560;51.364;12.384;2023-01-24T23:20:35;2.90;99.90
14934;DHT22;7560;51.364;12.384;2023-01-24T23:25:55;2.80;99.90
14934;DHT22;7560;51.364;12.384;2023-01-24T23:31:07;2.90;99.90
14934;DHT22;7560;51.364;12.384;2023-01-24T23:36:11;2.90;99.90
14934;DHT22;7560;51.364;12.384;2023-01-24T23:41:12;3.00;99.90
14934;DHT22;7560;51.364;12.384;2023-01-24T23:46:14;2.90;99.90
14934;DHT22;7560;51.364;12.384;2023-01-24T23:51:16;2.80;99.90
14934;DHT22;7560;51.364;12.384;2023-01-24T23:56:18;2.80;99.90
